createdAt,value
2023-01-22T00:01:36.565Z,82.80
2023-01-22T00:04:03.187Z,82.80
2023-01-22T00:06:29.822Z,83.50
2023-01-22T00:08:56.325Z,83.50
2023-01-22T00:11:22.918Z,83.50
2023-01-22T00:13:49.490Z,84.00
2023-01-22T00:16:17.134Z,83.80
2023-01-22T00:18:43.846Z,83.80
2023-01-22T00:21:11.423Z,83.50
2023-01-22T00:23:38.612Z,84.00
2023-01-22T00:26:06.860Z,84.40
2023-01-22T00:28:33.586Z,84.60
2023-01-22T00:31:01.229Z,84.80
2023-01-22T00:33:28.222Z,84.20
2023-01-22T00:35:54.775Z,84.30
2023-01-22T00:38:21.289Z,84.80
2023-01-22T00:40:47.831Z,84.30
2023-01-22T00:43:14.333Z,83.50
2023-01-22T00:45:40.859Z,83.20
2023-01-22T00:48:07.502Z,83.00
2023-01-22T00:50:33.977Z,83.50
2023-01-22T00:53:00.541Z,84.40
2023-01-22T00:55:27.021Z,85.00
2023-01-22T00:57:53.594Z,85.40
2023-01-22T01:00:20.427Z,85.50
2023-01-22T01:03:05.928Z,85.60
2023-01-22T01:05:32.565Z,85.20
2023-01-22T01:07:59.084Z,84.20
2023-01-22T01:10:25.587Z,84.20
2023-01-22T01:12:52.109Z,84.90
2023-01-22T01:15:18.636Z,84.30
2023-01-22T01:17:46.271Z,84.70
2023-01-22T01:20:13.040Z,85.70
2023-01-22T01:22:39.569Z,84.80
2023-01-22T01:25:06.131Z,85.00
2023-01-22T01:27:32.886Z,84.90
2023-01-22T01:29:59.423Z,83.90
2023-01-22T01:32:26.157Z,82.90
2023-01-22T01:34:52.688Z,83.10
2023-01-22T01:37:19.205Z,84.00
2023-01-22T01:39:45.746Z,85.20
2023-01-22T01:42:12.347Z,85.30
2023-01-22T01:44:40.228Z,86.90
2023-01-22T01:47:26.741Z,87.40
2023-01-22T01:49:53.582Z,86.20
2023-01-22T01:52:20.426Z,86.20
2023-01-22T01:54:50.156Z,87.30
2023-01-22T01:57:18.023Z,87.40
2023-01-22T01:59:45.445Z,87.40
2023-01-22T02:02:12.159Z,87.50
2023-01-22T02:04:38.803Z,86.40
2023-01-22T02:07:05.893Z,86.20
2023-01-22T02:09:32.473Z,86.10
2023-01-22T02:11:59.035Z,86.70
2023-01-22T02:14:36.086Z,87.30
2023-01-22T02:17:13.121Z,87.50
2023-01-22T02:19:39.849Z,87.50
2023-01-22T02:22:17.007Z,87.40
2023-01-22T02:24:43.555Z,87.50
2023-01-22T02:27:10.177Z,87.50
2023-01-22T02:29:36.922Z,87.50
2023-01-22T02:32:03.522Z,86.70
2023-01-22T02:34:30.096Z,87.50
2023-01-22T02:36:56.664Z,87.50
2023-01-22T02:39:23.229Z,86.30
2023-01-22T02:41:50.101Z,86.80
2023-01-22T02:44:16.692Z,87.50
2023-01-22T02:46:43.282Z,87.40
2023-01-22T02:49:09.987Z,87.50
2023-01-22T02:51:36.477Z,87.30
2023-01-22T02:54:03.078Z,87.20
2023-01-22T02:56:29.974Z,86.50
2023-01-22T02:58:56.511Z,87.30
2023-01-22T03:01:24.339Z,87.50
2023-01-22T03:03:52.174Z,87.50
2023-01-22T03:06:22.301Z,87.50
2023-01-22T03:08:49.654Z,87.50
2023-01-22T03:11:16.153Z,87.10
2023-01-22T03:14:01.155Z,86.70
2023-01-22T03:16:46.330Z,87.30
2023-01-22T03:19:31.536Z,87.50
2023-01-22T03:21:58.430Z,87.50
2023-01-22T03:24:24.951Z,86.60
2023-01-22T03:26:51.517Z,87.30
2023-01-22T03:29:18.060Z,87.50
2023-01-22T03:31:48.235Z,87.50
2023-01-22T03:34:15.901Z,87.50
2023-01-22T03:36:42.485Z,87.50
2023-01-22T03:39:09.459Z,87.50
2023-01-22T03:41:36.049Z,87.50
2023-01-22T03:44:03.695Z,87.50
2023-01-22T03:46:30.799Z,87.50
2023-01-22T03:48:57.316Z,87.50
2023-01-22T03:51:24.213Z,87.50
2023-01-22T03:53:50.746Z,87.50
2023-01-22T03:56:18.907Z,87.50
2023-01-22T03:58:46.026Z,87.50
2023-01-22T04:01:14.276Z,87.50
2023-01-22T04:03:40.938Z,87.50
2023-01-22T04:06:08.996Z,87.50
2023-01-22T04:08:36.530Z,88.00
2023-01-22T04:11:03.380Z,87.50
2023-01-22T04:13:30.649Z,87.50
2023-01-22T04:15:57.345Z,87.50
2023-01-22T04:18:23.883Z,87.50
2023-01-22T04:20:50.981Z,87.50
2023-01-22T04:23:18.031Z,88.00
2023-01-22T04:25:45.191Z,87.40
2023-01-22T04:28:11.997Z,87.40
2023-01-22T04:30:38.619Z,87.40
2023-01-22T04:33:05.235Z,87.40
2023-01-22T04:35:31.981Z,88.00
2023-01-22T04:37:58.780Z,88.50
2023-01-22T04:40:25.678Z,88.80
2023-01-22T04:42:52.242Z,87.90
2023-01-22T04:45:18.995Z,88.00
2023-01-22T04:47:47.022Z,87.60
2023-01-22T04:50:24.216Z,88.40
2023-01-22T04:52:51.409Z,89.00
2023-01-22T04:55:17.986Z,89.60
2023-01-22T04:57:44.506Z,89.40
2023-01-22T05:00:11.513Z,90.00
2023-01-22T05:02:38.194Z,90.40
2023-01-22T05:05:05.650Z,90.20
2023-01-22T05:07:32.235Z,90.10
2023-01-22T05:09:58.748Z,90.10
2023-01-22T05:12:25.308Z,90.00
2023-01-22T05:14:51.839Z,89.30
2023-01-22T05:17:18.585Z,90.00
2023-01-22T05:19:45.103Z,89.30
2023-01-22T05:22:12.018Z,89.40
2023-01-22T05:24:38.547Z,89.30
2023-01-22T05:27:05.119Z,90.00
2023-01-22T05:29:31.640Z,89.80
2023-01-22T05:31:58.497Z,90.10
2023-01-22T05:34:25.307Z,90.50
2023-01-22T05:36:52.577Z,90.50
2023-01-22T05:39:19.114Z,90.50
2023-01-22T05:41:45.711Z,90.50
2023-01-22T05:44:12.973Z,90.50
2023-01-22T05:46:39.752Z,90.50
2023-01-22T05:49:06.788Z,90.60
2023-01-22T05:51:33.622Z,90.50
2023-01-22T05:54:00.423Z,90.60
2023-01-22T05:56:27.087Z,90.50
2023-01-22T05:58:53.619Z,90.50
2023-01-22T06:01:20.119Z,90.50
2023-01-22T06:03:46.730Z,90.40
2023-01-22T06:06:14.417Z,90.50
2023-01-22T06:08:41.394Z,90.50
2023-01-22T06:11:09.963Z,90.80
2023-01-22T06:13:36.894Z,90.50
2023-01-22T06:16:03.639Z,90.70
2023-01-22T06:18:30.216Z,90.50
2023-01-22T06:20:59.987Z,90.70
2023-01-22T06:23:27.943Z,90.60
2023-01-22T06:25:55.069Z,90.50
2023-01-22T06:28:21.708Z,90.90
2023-01-22T06:30:48.669Z,91.10
2023-01-22T06:33:15.304Z,91.00
2023-01-22T06:35:41.806Z,91.30
2023-01-22T06:38:08.493Z,91.60
2023-01-22T06:40:35.106Z,91.40
2023-01-22T06:43:05.566Z,91.40
2023-01-22T06:45:32.507Z,91.50
2023-01-22T06:47:59.055Z,91.40
2023-01-22T06:50:25.594Z,91.10
2023-01-22T06:52:52.118Z,91.00
2023-01-22T06:55:18.739Z,91.10
2023-01-22T06:57:45.268Z,91.10
2023-01-22T07:00:11.917Z,91.10
2023-01-22T07:02:38.456Z,91.20
2023-01-22T07:05:05.131Z,91.00
2023-01-22T07:07:31.785Z,91.00
2023-01-22T07:09:58.365Z,90.60
2023-01-22T07:12:24.931Z,90.60
2023-01-22T07:14:51.441Z,90.70
2023-01-22T07:17:17.935Z,90.70
2023-01-22T07:19:44.468Z,91.00
2023-01-22T07:22:11.148Z,90.80
2023-01-22T07:24:37.680Z,90.60
2023-01-22T07:27:04.233Z,90.60
2023-01-22T07:29:30.800Z,90.90
2023-01-22T07:31:57.354Z,90.60
2023-01-22T07:34:23.997Z,90.60
2023-01-22T07:36:50.514Z,90.60
2023-01-22T07:39:17.119Z,90.40
2023-01-22T07:41:43.713Z,90.00
2023-01-22T07:44:10.742Z,90.00
2023-01-22T07:46:38.923Z,90.10
2023-01-22T07:49:05.824Z,90.20
2023-01-22T07:51:32.535Z,90.00
2023-01-22T07:53:59.295Z,89.70
2023-01-22T07:56:25.817Z,89.40
2023-01-22T07:58:52.334Z,88.80
2023-01-22T08:01:18.872Z,88.80
2023-01-22T08:03:45.420Z,89.10
2023-01-22T08:06:12.714Z,89.10
2023-01-22T08:08:39.249Z,87.80
2023-01-22T08:11:05.774Z,87.60
2023-01-22T08:13:32.352Z,87.60
2023-01-22T08:15:58.959Z,87.60
2023-01-22T08:18:25.644Z,87.60
2023-01-22T08:20:53.283Z,87.60
2023-01-22T08:23:21.840Z,87.60
2023-01-22T08:25:48.547Z,88.20
2023-01-22T08:28:15.066Z,87.80
2023-01-22T08:30:46.531Z,87.00
2023-01-22T08:33:15.582Z,87.00
2023-01-22T08:35:42.117Z,86.60
2023-01-22T08:38:08.638Z,86.80
2023-01-22T08:40:37.719Z,87.70
2023-01-22T08:43:04.530Z,86.40
2023-01-22T08:45:31.059Z,86.10
2023-01-22T08:47:59.689Z,86.80
2023-01-22T08:50:26.735Z,85.20
2023-01-22T08:52:55.458Z,84.70
2023-01-22T08:55:21.979Z,84.40
2023-01-22T08:57:52.437Z,84.00
2023-01-22T09:00:19.815Z,83.60
2023-01-22T09:02:46.672Z,82.30
2023-01-22T09:05:13.211Z,82.10
2023-01-22T09:07:39.780Z,82.00
2023-01-22T09:10:08.814Z,82.60
2023-01-22T09:12:35.335Z,83.10
2023-01-22T09:15:02.282Z,82.80
2023-01-22T09:17:28.777Z,83.70
2023-01-22T09:19:55.272Z,82.50
2023-01-22T09:22:21.777Z,81.30
2023-01-22T09:24:48.289Z,80.60
2023-01-22T09:27:14.830Z,81.30
2023-01-22T09:29:41.479Z,81.50
2023-01-22T09:32:08.059Z,80.10
2023-01-22T09:34:34.620Z,80.00
2023-01-22T09:37:05.469Z,80.00
2023-01-22T09:39:31.967Z,80.10
2023-01-22T09:42:00.376Z,80.10
2023-01-22T09:44:37.527Z,80.10
2023-01-22T09:47:11.832Z,80.20
2023-01-22T09:49:41.422Z,80.20
2023-01-22T09:52:09.159Z,80.10
2023-01-22T09:54:35.694Z,80.10
2023-01-22T09:57:03.997Z,80.10
2023-01-22T09:59:39.152Z,80.20
2023-01-22T10:02:18.219Z,80.00
2023-01-22T10:04:45.386Z,79.80
2023-01-22T10:07:15.182Z,79.70
2023-01-22T10:09:45.218Z,79.70
2023-01-22T10:12:12.833Z,78.90
2023-01-22T10:14:40.904Z,77.90
2023-01-22T10:17:13.766Z,78.40
2023-01-22T10:19:43.325Z,79.20
2023-01-22T10:22:20.714Z,78.70
2023-01-22T10:24:47.203Z,78.30
2023-01-22T10:27:16.363Z,76.30
2023-01-22T10:29:55.782Z,76.30
2023-01-22T10:32:26.635Z,74.70
2023-01-22T10:35:04.929Z,73.80
2023-01-22T10:37:42.650Z,72.40
2023-01-22T10:40:25.829Z,72.50
2023-01-22T10:43:21.841Z,71.90
2023-01-22T10:45:53.258Z,70.60
2023-01-22T10:48:20.365Z,69.70
2023-01-22T10:50:57.493Z,69.70
2023-01-22T10:53:30.763Z,70.20
2023-01-22T10:55:58.841Z,69.70
2023-01-22T10:58:27.977Z,69.30
2023-01-22T11:01:02.974Z,69.50
2023-01-22T11:03:32.240Z,68.40
2023-01-22T11:06:01.363Z,68.40
2023-01-22T11:08:30.815Z,69.00
2023-01-22T11:11:03.351Z,68.50
2023-01-22T11:13:45.127Z,66.10
2023-01-22T11:16:24.663Z,65.10
2023-01-22T11:18:55.811Z,64.30
2023-01-22T11:21:27.972Z,64.30
2023-01-22T11:24:00.954Z,64.30
2023-01-22T11:26:40.749Z,64.30
2023-01-22T11:29:27.806Z,64.30
2023-01-22T11:31:59.867Z,64.40
2023-01-22T11:34:45.309Z,64.40
2023-01-22T11:37:17.090Z,64.50
2023-01-22T11:40:02.475Z,62.10
2023-01-22T11:42:41.092Z,64.40
2023-01-22T11:45:30.240Z,64.50
2023-01-22T11:48:06.898Z,62.90
2023-01-22T11:50:33.362Z,63.70
2023-01-22T11:53:05.409Z,60.30
2023-01-22T11:55:46.463Z,56.80
2023-01-22T11:58:21.988Z,60.70
2023-01-22T12:01:10.186Z,59.60
2023-01-22T12:03:42.803Z,61.70
2023-01-22T12:06:18.808Z,62.70
2023-01-22T12:09:02.487Z,61.40
2023-01-22T12:11:28.956Z,60.60
2023-01-22T12:14:31.090Z,60.00
2023-01-22T12:17:03.403Z,61.50
2023-01-22T12:19:50.066Z,61.20
2023-01-22T12:22:34.475Z,61.20
2023-01-22T12:25:16.367Z,60.40
2023-01-22T12:27:47.249Z,59.20
2023-01-22T12:30:22.474Z,56.20
2023-01-22T12:32:56.004Z,55.50
2023-01-22T12:35:23.009Z,55.50
2023-01-22T12:38:14.887Z,55.50
2023-01-22T12:40:52.586Z,56.20
2023-01-22T12:43:21.273Z,55.50
2023-01-22T12:45:55.571Z,55.10
2023-01-22T12:48:35.777Z,52.20
2023-01-22T12:51:02.360Z,55.40
2023-01-22T12:53:35.653Z,55.40
2023-01-22T12:56:06.718Z,54.30
2023-01-22T12:58:34.596Z,55.50
2023-01-22T13:01:01.172Z,55.50
2023-01-22T13:03:33.099Z,51.70
2023-01-22T13:06:00.808Z,53.60
2023-01-22T13:08:43.487Z,53.50
2023-01-22T13:11:10.232Z,55.40
2023-01-22T13:13:44.794Z,52.60
2023-01-22T13:16:46.830Z,53.50
2023-01-22T13:19:30.074Z,53.60
2023-01-22T13:21:57.590Z,55.30
2023-01-22T13:24:24.076Z,55.30
2023-01-22T13:26:54.987Z,55.20
2023-01-22T13:29:26.679Z,55.20
2023-01-22T13:32:01.428Z,55.20
2023-01-22T13:34:28.533Z,55.20
2023-01-22T13:36:55.637Z,53.80
2023-01-22T13:39:30.096Z,55.20
2023-01-22T13:42:00.833Z,55.50
2023-01-22T13:44:38.908Z,55.40
2023-01-22T13:47:05.508Z,53.20
2023-01-22T13:49:32.965Z,51.80
2023-01-22T13:52:03.195Z,51.80
2023-01-22T13:54:31.345Z,53.00
2023-01-22T13:56:57.979Z,53.70
2023-01-22T13:59:26.414Z,52.60
2023-01-22T14:01:53.397Z,53.40
2023-01-22T14:04:28.082Z,55.10
2023-01-22T14:06:55.070Z,53.90
2023-01-22T14:09:31.852Z,53.10
2023-01-22T14:11:59.195Z,50.10
2023-01-22T14:14:25.973Z,50.30
2023-01-22T14:16:52.572Z,49.60
2023-01-22T14:19:19.139Z,50.30
2023-01-22T14:21:45.685Z,48.80
2023-01-22T14:24:12.256Z,49.40
2023-01-22T14:26:38.817Z,47.90
2023-01-22T14:29:05.356Z,47.80
2023-01-22T14:31:31.938Z,49.00
2023-01-22T14:33:58.482Z,49.10
2023-01-22T14:36:25.330Z,50.50
2023-01-22T14:38:53.516Z,48.00
2023-01-22T14:41:20.098Z,48.50
2023-01-22T14:43:46.590Z,50.20
2023-01-22T14:46:13.119Z,50.60
2023-01-22T14:48:39.772Z,52.20
2023-01-22T14:51:08.137Z,51.60
2023-01-22T14:53:35.011Z,51.80
2023-01-22T14:56:01.547Z,52.80
2023-01-22T14:58:28.113Z,52.80
2023-01-22T15:00:54.695Z,52.10
2023-01-22T15:03:21.229Z,53.20
2023-01-22T15:05:50.775Z,52.50
2023-01-22T15:08:17.359Z,50.90
2023-01-22T15:10:44.880Z,51.80
2023-01-22T15:13:11.466Z,51.60
2023-01-22T15:15:38.023Z,53.60
2023-01-22T15:18:04.588Z,54.00
2023-01-22T15:20:31.398Z,55.10
2023-01-22T15:22:58.013Z,55.00
2023-01-22T15:25:24.580Z,55.00
2023-01-22T15:27:51.110Z,55.10
2023-01-22T15:30:18.329Z,55.10
2023-01-22T15:32:45.125Z,55.10
2023-01-22T15:35:11.957Z,55.00
2023-01-22T15:37:38.629Z,55.30
2023-01-22T15:40:05.519Z,55.10
2023-01-22T15:42:32.178Z,55.10
2023-01-22T15:44:58.726Z,55.00
2023-01-22T15:47:25.500Z,55.00
2023-01-22T15:49:52.108Z,55.00
2023-01-22T15:52:18.957Z,55.00
2023-01-22T15:54:46.270Z,55.70
2023-01-22T15:57:13.500Z,57.20
2023-01-22T15:59:41.368Z,58.40
2023-01-22T16:02:11.080Z,58.40
2023-01-22T16:04:37.756Z,57.40
2023-01-22T16:07:04.267Z,58.10
2023-01-22T16:09:30.827Z,59.30
2023-01-22T16:11:57.365Z,60.30
2023-01-22T16:14:23.871Z,61.80
2023-01-22T16:16:50.453Z,62.00
2023-01-22T16:19:17.002Z,63.90
2023-01-22T16:21:45.002Z,64.20
2023-01-22T16:24:11.632Z,64.10
2023-01-22T16:26:38.208Z,64.10
2023-01-22T16:29:05.455Z,66.10
2023-01-22T16:31:32.844Z,67.90
2023-01-22T16:34:01.053Z,68.30
2023-01-22T16:36:29.393Z,70.00
2023-01-22T16:38:56.085Z,71.00
2023-01-22T16:41:29.670Z,71.70
2023-01-22T16:44:07.056Z,72.40
2023-01-22T16:46:34.083Z,73.10
2023-01-22T16:49:03.427Z,73.60
2023-01-22T16:51:38.068Z,74.10
2023-01-22T16:54:05.491Z,75.60
2023-01-22T16:56:35.146Z,76.50
2023-01-22T16:59:02.260Z,77.00
2023-01-22T17:01:29.671Z,78.00
2023-01-22T17:03:56.344Z,79.00
2023-01-22T17:06:34.185Z,80.50
2023-01-22T17:09:00.717Z,80.50
2023-01-22T17:11:27.269Z,80.50
2023-01-22T17:13:54.009Z,80.40
2023-01-22T17:16:20.490Z,81.20
2023-01-22T17:18:47.126Z,81.90
2023-01-22T17:21:15.541Z,81.10
2023-01-22T17:23:42.181Z,80.40
2023-01-22T17:26:10.051Z,80.60
2023-01-22T17:28:37.551Z,81.50
2023-01-22T17:31:05.140Z,81.20
2023-01-22T17:33:31.833Z,81.40
2023-01-22T17:35:59.222Z,82.00
2023-01-22T17:38:27.566Z,83.50
2023-01-22T17:40:55.283Z,84.30
2023-01-22T17:43:21.816Z,85.80
2023-01-22T17:45:48.988Z,87.20
2023-01-22T17:48:15.856Z,88.20
2023-01-22T17:50:42.386Z,88.20
2023-01-22T17:53:08.854Z,88.20
2023-01-22T17:55:37.302Z,88.50
2023-01-22T17:58:03.998Z,89.70
2023-01-22T18:00:31.536Z,90.30
2023-01-22T18:02:58.130Z,90.10
2023-01-22T18:05:26.623Z,89.90
2023-01-22T18:07:53.137Z,89.80
2023-01-22T18:10:20.866Z,90.40
2023-01-22T18:12:49.060Z,90.80
2023-01-22T18:15:15.704Z,90.90
2023-01-22T18:17:42.194Z,90.90
2023-01-22T18:20:09.295Z,90.80
2023-01-22T18:22:35.837Z,90.90
2023-01-22T18:25:02.492Z,90.80
2023-01-22T18:27:29.012Z,90.90
2023-01-22T18:29:55.560Z,90.80
2023-01-22T18:32:22.427Z,90.90
2023-01-22T18:34:48.930Z,90.90
2023-01-22T18:37:15.467Z,91.20
2023-01-22T18:39:42.071Z,90.90
2023-01-22T18:42:08.666Z,91.20
2023-01-22T18:44:35.208Z,91.60
2023-01-22T18:47:02.082Z,91.80
2023-01-22T18:49:28.905Z,92.20
2023-01-22T18:51:59.096Z,92.60
2023-01-22T18:54:25.707Z,92.60
2023-01-22T18:56:52.399Z,92.20
2023-01-22T18:59:18.977Z,92.00
2023-01-22T19:01:51.217Z,92.00
2023-01-22T19:04:20.722Z,92.30
2023-01-22T19:06:51.756Z,92.20
2023-01-22T19:09:18.734Z,92.40
2023-01-22T19:11:47.076Z,92.50
2023-01-22T19:14:15.462Z,92.50
2023-01-22T19:16:44.782Z,92.50
2023-01-22T19:19:13.344Z,92.70
2023-01-22T19:21:40.939Z,93.20
2023-01-22T19:24:08.670Z,93.20
2023-01-22T19:26:36.445Z,93.40
2023-01-22T19:29:04.873Z,93.30
2023-01-22T19:31:33.009Z,93.60
2023-01-22T19:34:00.273Z,93.20
2023-01-22T19:36:28.378Z,93.30
2023-01-22T19:38:55.762Z,93.40
2023-01-22T19:41:23.302Z,93.80
2023-01-22T19:43:53.306Z,94.00
2023-01-22T19:46:20.006Z,94.20
2023-01-22T19:48:46.601Z,94.20
2023-01-22T19:51:14.077Z,94.20
2023-01-22T19:53:41.152Z,94.20
2023-01-22T19:56:24.248Z,94.40
2023-01-22T19:58:51.619Z,94.70
2023-01-22T20:01:18.176Z,94.70
2023-01-22T20:03:45.006Z,94.50
2023-01-22T20:06:12.158Z,94.70
2023-01-22T20:08:41.819Z,94.40
2023-01-22T20:11:09.547Z,94.20
2023-01-22T20:13:36.810Z,94.20
2023-01-22T20:16:03.923Z,93.80
2023-01-22T20:18:30.762Z,93.70
2023-01-22T20:21:01.811Z,93.60
2023-01-22T20:23:28.785Z,93.80
2023-01-22T20:25:55.728Z,93.80
2023-01-22T20:28:22.670Z,94.20
2023-01-22T20:30:59.528Z,94.10
2023-01-22T20:33:26.766Z,93.80
2023-01-22T20:35:57.387Z,94.00
2023-01-22T20:38:23.923Z,93.90
2023-01-22T20:40:50.413Z,93.80
2023-01-22T20:43:17.751Z,93.70
2023-01-22T20:45:44.476Z,93.70
2023-01-22T20:48:11.291Z,93.90
2023-01-22T20:50:41.747Z,93.80
2023-01-22T20:53:08.314Z,93.80
2023-01-22T20:55:34.847Z,93.70
2023-01-22T20:58:01.527Z,93.90
2023-01-22T21:00:28.117Z,93.60
2023-01-22T21:02:54.626Z,93.60
2023-01-22T21:05:21.483Z,93.40
2023-01-22T21:07:48.019Z,93.30
2023-01-22T21:10:14.656Z,92.50
2023-01-22T21:12:41.605Z,92.50
2023-01-22T21:15:08.714Z,92.50
2023-01-22T21:17:35.791Z,92.50
2023-01-22T21:20:02.959Z,92.50
2023-01-22T21:22:29.713Z,92.50
2023-01-22T21:24:56.214Z,92.50
2023-01-22T21:27:22.832Z,92.50
2023-01-22T21:29:50.337Z,92.50
2023-01-22T21:32:17.107Z,92.50
2023-01-22T21:34:43.615Z,92.70
2023-01-22T21:37:10.118Z,92.50
2023-01-22T21:39:39.387Z,92.00
2023-01-22T21:42:24.633Z,91.90
2023-01-22T21:45:09.676Z,92.00
2023-01-22T21:47:36.277Z,92.50
2023-01-22T21:50:02.841Z,92.50
2023-01-22T21:52:29.355Z,92.50
2023-01-22T21:54:56.800Z,92.50
2023-01-22T21:57:23.347Z,92.60
2023-01-22T21:59:50.118Z,93.00
2023-01-22T22:02:18.650Z,93.30
2023-01-22T22:04:45.444Z,92.80
2023-01-22T22:07:12.767Z,93.10
2023-01-22T22:09:39.339Z,93.10
2023-01-22T22:12:05.963Z,93.20
2023-01-22T22:14:33.003Z,93.30
2023-01-22T22:16:59.549Z,93.40
2023-01-22T22:19:26.287Z,93.60
2023-01-22T22:21:52.861Z,93.20
2023-01-22T22:24:20.270Z,93.40
2023-01-22T22:26:46.938Z,93.50
2023-01-22T22:29:13.461Z,93.00
2023-01-22T22:31:40.046Z,93.20
2023-01-22T22:34:06.650Z,92.80
2023-01-22T22:36:33.387Z,92.50
2023-01-22T22:39:01.033Z,92.50
2023-01-22T22:41:29.044Z,92.70
2023-01-22T22:43:55.995Z,93.00
2023-01-22T22:46:26.935Z,93.00
2023-01-22T22:48:54.322Z,93.20
2023-01-22T22:51:22.562Z,92.90
2023-01-22T22:53:52.046Z,93.20
2023-01-22T22:56:18.738Z,92.90
2023-01-22T22:58:45.286Z,93.20
2023-01-22T23:01:12.991Z,92.60
2023-01-22T23:03:40.387Z,92.80
2023-01-22T23:06:08.553Z,92.50
2023-01-22T23:08:36.105Z,93.00
2023-01-22T23:11:03.825Z,92.90
2023-01-22T23:13:30.331Z,93.20
2023-01-22T23:16:04.298Z,93.60
2023-01-22T23:18:32.031Z,93.60
2023-01-22T23:20:58.555Z,93.80
2023-01-22T23:23:25.128Z,93.60
2023-01-22T23:25:51.664Z,93.60
2023-01-22T23:28:18.217Z,93.60
2023-01-22T23:30:44.832Z,94.00
2023-01-22T23:33:11.387Z,94.20
2023-01-22T23:35:37.900Z,93.90
2023-01-22T23:38:04.438Z,93.90
2023-01-22T23:40:31.118Z,93.90
2023-01-22T23:42:57.627Z,94.00
2023-01-22T23:45:24.229Z,93.50
2023-01-22T23:47:51.558Z,93.70
2023-01-22T23:50:18.313Z,94.00
2023-01-22T23:52:46.384Z,93.80
2023-01-22T23:55:13.286Z,93.50
2023-01-22T23:57:39.995Z,93.50
